Observation data for Post on 08/13/2020      Previous  Date       Current Mesonet Observations  Soil Data  Daily Summary Page  Observations in Plain Language
KPT1 130500Z 17005KT 32/09 A2995 RMK A01 T03160090  RH  025%=      5-min Rain = 0
KPT1 130505Z 17005KT 31/09 A2995 RMK A01 T03130090  RH  026%=      5-min Rain = 0
KPT1 130510Z 18007KT 32/09 A2995 RMK A01 T03160089  RH  025%=      5-min Rain = 0
KPT1 130515Z 18008KT 32/09 A2995 RMK A01 T03220088  RH  024%=      5-min Rain = 0
KPT1 130520Z 18008G13KT 32/09 A2995 RMK A01 T03220088  RH  024%=      5-min Rain = 0
KPT1 130525Z 18008KT 32/09 A2995 RMK A01 T03200089  RH  025%=      5-min Rain = 0
KPT1 130530Z 18007KT 32/09 A2995 RMK A01 T03180089  RH  025%=      5-min Rain = 0
KPT1 130535Z 18007KT 32/09 A2995 RMK A01 T03150090  RH  025%=      5-min Rain = 0
KPT1 130540Z 18009KT 32/09 A2995 RMK A01 T03150089  RH  025%=      5-min Rain = 0
KPT1 130545Z 18009KT 32/09 A2995 RMK A01 T03160089  RH  025%=      5-min Rain = 0
KPT1 130550Z 18010G15KT 32/09 A2995 RMK A01 T03170090  RH  025%=      5-min Rain = 0
KPT1 130555Z 19010G15KT 32/09 A2996 RMK A01 T03170091  RH  025%=      5-min Rain = 0
KPT1 130600Z 20011G16KT 32/09 A2996 RMK A01 T03180092  RH  025%=      5-min Rain = 0
KPT1 130605Z 20010G15KT 32/09 A2996 RMK A01 T03170092  RH  026%=      5-min Rain = 0
KPT1 130610Z 20010KT 31/09 A2996 RMK A01 T03130092  RH  026%=      5-min Rain = 0
KPT1 130615Z 20009KT 31/09 A2996 RMK A01 T03110092  RH  027%=      5-min Rain = 0
KPT1 130620Z 20009KT 31/09 A2996 RMK A01 T03090092  RH  027%=      5-min Rain = 0
KPT1 130625Z 20008G13KT 31/09 A2996 RMK A01 T03070093  RH  027%=      5-min Rain = 0
KPT1 130630Z 20008KT 31/09 A2996 RMK A01 T03060094  RH  028%=      5-min Rain = 0
KPT1 130635Z 20009KT 31/09 A2996 RMK A01 T03050094  RH  028%=      5-min Rain = 0
KPT1 130640Z 20008KT 31/10 A2996 RMK A01 T03050095  RH  028%=      5-min Rain = 0
KPT1 130645Z 20007KT 30/10 A2996 RMK A01 T03030096  RH  029%=      5-min Rain = 0
KPT1 130650Z 20008G13KT 30/10 A2996 RMK A01 T03020097  RH  029%=      5-min Rain = 0
KPT1 130655Z 20009G14KT 30/10 A2996 RMK A01 T03030098  RH  029%=      5-min Rain = 0
KPT1 130700Z 20009KT 30/10 A2996 RMK A01 T03030100  RH  029%=      5-min Rain = 0
KPT1 130705Z 20010KT 30/10 A2996 RMK A01 T03040101  RH  029%=      5-min Rain = 0
KPT1 130710Z 20011G16KT 31/10 A2996 RMK A01 T03060101  RH  029%=      5-min Rain = 0
KPT1 130715Z 20010G15KT 31/10 A2996 RMK A01 T03060102  RH  029%=      5-min Rain = 0
KPT1 130720Z 20010G16KT 31/10 A2996 RMK A01 T03050102  RH  029%=      5-min Rain = 0
KPT1 130725Z 20011G17KT 31/10 A2996 RMK A01 T03050103  RH  030%=      5-min Rain = 0
KPT1 130730Z 20012G19KT 31/10 A2996 RMK A01 T03050104  RH  030%=      5-min Rain = 0
KPT1 130735Z 20010G16KT 30/11 A2996 RMK A01 T03040105  RH  030%=      5-min Rain = 0
KPT1 130740Z 20011KT 30/11 A2996 RMK A01 T03040106  RH  030%=      5-min Rain = 0
KPT1 130745Z 20010G16KT 30/11 A2996 RMK A01 T03030107  RH  031%=      5-min Rain = 0
KPT1 130750Z 21010G15KT 30/11 A2996 RMK A01 T03020108  RH  031%=      5-min Rain = 0
KPT1 130755Z 21011KT 30/11 A2996 RMK A01 T03010109  RH  032%=      5-min Rain = 0
KPT1 130800Z 21011G16KT 30/11 A2996 RMK A01 T03010110  RH  032%=      5-min Rain = 0
KPT1 130805Z 21011G17KT 30/11 A2996 RMK A01 T03010110  RH  032%=      5-min Rain = 0
KPT1 130810Z 21012G17KT 30/11 A2996 RMK A01 T03020111  RH  032%=      5-min Rain = 0
KPT1 130815Z 21013G21KT 30/11 A2995 RMK A01 T03030112  RH  032%=      5-min Rain = 0
KPT1 130820Z 21012G18KT 30/11 A2995 RMK A01 T03030113  RH  032%=      5-min Rain = 0
KPT1 130825Z 21011G16KT 30/11 A2996 RMK A01 T03010113  RH  033%=      5-min Rain = 0
KPT1 130830Z 21010G18KT 30/11 A2996 RMK A01 T03000114  RH  033%=      5-min Rain = 0
KPT1 130835Z 21010G15KT 30/11 A2996 RMK A01 T02990114  RH  033%=      5-min Rain = 0
KPT1 130840Z 21011G16KT 30/12 A2996 RMK A01 T02980115  RH  033%=      5-min Rain = 0
KPT1 130845Z 21011G17KT 30/12 A2995 RMK A01 T02980115  RH  034%=      5-min Rain = 0
KPT1 130850Z 21010KT 30/12 A2995 RMK A01 T02970116  RH  034%=      5-min Rain = 0
KPT1 130855Z 21010G15KT 30/12 A2995 RMK A01 T02970116  RH  034%=      5-min Rain = 0
KPT1 130900Z 21013G19KT 30/12 A2995 RMK A01 T02980116  RH  034%=      5-min Rain = 0
KPT1 130905Z 21011G17KT 30/12 A2995 RMK A01 T02980116  RH  034%=      5-min Rain = 0
KPT1 130910Z 21009G14KT 30/12 A2995 RMK A01 T02970116  RH  034%=      5-min Rain = 0
KPT1 130915Z 21012G20KT 30/12 A2995 RMK A01 T02970116  RH  034%=      5-min Rain = 0
KPT1 130920Z 21011G17KT 30/12 A2994 RMK A01 T02970116  RH  034%=      5-min Rain = 0
KPT1 130925Z 21010G16KT 30/12 A2994 RMK A01 T02960116  RH  034%=      5-min Rain = 0
KPT1 130930Z 22010G15KT 30/12 A2994 RMK A01 T02950116  RH  034%=      5-min Rain = 0
KPT1 130935Z 21012G18KT 30/12 A2994 RMK A01 T02960116  RH  034%=      5-min Rain = 0
KPT1 130940Z 21012G17KT 30/12 A2994 RMK A01 T02950117  RH  034%=      5-min Rain = 0
KPT1 130945Z 21012G18KT 30/12 A2994 RMK A01 T02960117  RH  034%=      5-min Rain = 0
KPT1 130950Z 22012KT 30/12 A2994 RMK A01 T02950117  RH  035%=      5-min Rain = 0
KPT1 130955Z 21012G18KT 29/12 A2994 RMK A01 T02940118  RH  035%=      5-min Rain = 0
KPT1 131000Z 21012G21KT 29/12 A2994 RMK A01 T02940118  RH  035%=      5-min Rain = 0
KPT1 131005Z 22013G19KT 29/12 A2994 RMK A01 T02940118  RH  035%=      5-min Rain = 0
KPT1 131010Z 21012G19KT 29/12 A2994 RMK A01 T02940118  RH  035%=      5-min Rain = 0
KPT1 131015Z 21013G20KT 29/12 A2994 RMK A01 T02930118  RH  035%=      5-min Rain = 0
KPT1 131020Z 22013G18KT 29/12 A2994 RMK A01 T02930119  RH  035%=      5-min Rain = 0
KPT1 131025Z 22012KT 29/12 A2994 RMK A01 T02920119  RH  036%=      5-min Rain = 0
KPT1 131030Z 22011G17KT 29/12 A2995 RMK A01 T02910119  RH  036%=      5-min Rain = 0
KPT1 131035Z 22010G16KT 29/12 A2995 RMK A01 T02900120  RH  036%=      5-min Rain = 0
KPT1 131040Z 22010KT 29/12 A2995 RMK A01 T02890120  RH  036%=      5-min Rain = 0
KPT1 131045Z 22010KT 29/12 A2995 RMK A01 T02880120  RH  037%=      5-min Rain = 0
KPT1 131050Z 22008G13KT 29/12 A2996 RMK A01 T02870120  RH  037%=      5-min Rain = 0
KPT1 131055Z 22008KT 29/12 A2996 RMK A01 T02850120  RH  037%=      5-min Rain = 0
KPT1 131100Z 22008KT 28/12 A2996 RMK A01 T02840120  RH  038%=      5-min Rain = 0
KPT1 131105Z 22010KT 28/12 A2996 RMK A01 T02840120  RH  038%=      5-min Rain = 0
KPT1 131110Z 22009KT 28/12 A2996 RMK A01 T02830120  RH  038%=      5-min Rain = 0
KPT1 131115Z 22010KT 28/12 A2996 RMK A01 T02820120  RH  038%=      5-min Rain = 0
KPT1 131120Z 22010KT 28/12 A2996 RMK A01 T02810120  RH  038%=      5-min Rain = 0
KPT1 131125Z 22009KT 28/12 A2996 RMK A01 T02800120  RH  039%=      5-min Rain = 0
KPT1 131130Z 22009KT 28/12 A2996 RMK A01 T02780121  RH  039%=      5-min Rain = 0
KPT1 131135Z 22008KT 28/12 A2996 RMK A01 T02760121  RH  040%=      5-min Rain = 0
KPT1 131140Z 22007KT 27/12 A2997 RMK A01 T02740121  RH  040%=      5-min Rain = 0
KPT1 131145Z 23008KT 27/12 A2997 RMK A01 T02730121  RH  040%=      5-min Rain = 0
KPT1 131150Z 23007KT 27/12 A2997 RMK A01 T02720121  RH  041%=      5-min Rain = 0
KPT1 131155Z 23006KT 27/12 A2998 RMK A01 T02700121  RH  041%=      5-min Rain = 0
KPT1 131200Z 22007KT 27/12 A2998 RMK A01 T02690122  RH  042%=      5-min Rain = 0
KPT1 131205Z 22006KT 27/12 A2998 RMK A01 T02670122  RH  042%=      5-min Rain = 0
KPT1 131210Z 23006KT 27/12 A2998 RMK A01 T02650122  RH  043%=      5-min Rain = 0
KPT1 131215Z 22007KT 26/12 A2998 RMK A01 T02640123  RH  043%=      5-min Rain = 0
KPT1 131220Z 22007KT 26/12 A2998 RMK A01 T02640123  RH  043%=      5-min Rain = 0
KPT1 131225Z 22006KT 26/12 A2998 RMK A01 T02620123  RH  044%=      5-min Rain = 0
KPT1 131230Z 21007KT 26/12 A2998 RMK A01 T02610124  RH  044%=      5-min Rain = 0
KPT1 131235Z 21007KT 26/13 A2998 RMK A01 T02610125  RH  044%=      5-min Rain = 0
KPT1 131240Z 22008KT 26/12 A2998 RMK A01 T02620124  RH  044%=      5-min Rain = 0
KPT1 131245Z 22009KT 26/13 A2998 RMK A01 T02640125  RH  044%=      5-min Rain = 0
KPT1 131250Z 22008KT 27/13 A2998 RMK A01 T02650125  RH  043%=      5-min Rain = 0
KPT1 131255Z 22007KT 27/13 A2998 RMK A01 T02650126  RH  044%=      5-min Rain = 0
KPT1 131300Z 22007KT 27/13 A2998 RMK A01 T02650126  RH  044%=      5-min Rain = 0
KPT1 131305Z 21006KT 27/13 A2998 RMK A01 T02660128  RH  044%=      5-min Rain = 0
KPT1 131310Z 21006KT 27/13 A2998 RMK A01 T02700128  RH  043%=      5-min Rain = 0
KPT1 131315Z 21005KT 28/13 A2998 RMK A01 T02750129  RH  042%=      5-min Rain = 0
KPT1 131320Z 22005KT 28/13 A2999 RMK A01 T02790130  RH  041%=      5-min Rain = 0
KPT1 131325Z 23005KT 28/13 A30 RMK A01 T02840130  RH  040%=      5-min Rain = 0
KPT1 131330Z 23005KT 29/13 A30 RMK A01 T02860130  RH  040%=      5-min Rain = 0
KPT1 131335Z 21006KT 29/13 A2999 RMK A01 T02870131  RH  040%=      5-min Rain = 0
KPT1 131340Z 21007KT 29/13 A2999 RMK A01 T02860130  RH  040%=      5-min Rain = 0
KPT1 131345Z 21008KT 29/13 A2999 RMK A01 T02850130  RH  040%=      5-min Rain = 0
KPT1 131350Z 21008KT 28/13 A2999 RMK A01 T02810130  RH  041%=      5-min Rain = 0
KPT1 131355Z 22008KT 28/13 A2999 RMK A01 T02810129  RH  041%=      5-min Rain = 0
KPT1 131400Z 23009KT 28/13 A30 RMK A01 T02820129  RH  041%=      5-min Rain = 0
KPT1 131405Z 24007KT 28/13 A30 RMK A01 T02820131  RH  041%=      5-min Rain = 0
KPT1 131410Z 23006KT 28/13 A30 RMK A01 T02840132  RH  041%=      5-min Rain = 0
KPT1 131415Z 22006KT 29/13 A30 RMK A01 T02860132  RH  040%=      5-min Rain = 0
KPT1 131420Z 23009KT 29/13 A30 RMK A01 T02880130  RH  039%=      5-min Rain = 0
KPT1 131425Z 21009G14KT 29/13 A30 RMK A01 T02880131  RH  039%=      5-min Rain = 0
KPT1 131430Z 22010G16KT 29/13 A30 RMK A01 T02900131  RH  039%=      5-min Rain = 0
KPT1 131435Z 21012KT 29/13 A30 RMK A01 T02910131  RH  039%=      5-min Rain = 0
KPT1 131440Z 21011KT 29/13 A30 RMK A01 T02880132  RH  040%=      5-min Rain = 0
KPT1 131445Z 22011G17KT 29/13 A30 RMK A01 T02890132  RH  040%=      5-min Rain = 0
KPT1 131450Z 22010G15KT 29/13 A30 RMK A01 T02910133  RH  039%=      5-min Rain = 0
KPT1 131455Z 22010KT 30/13 A30 RMK A01 T03020134  RH  037%=      5-min Rain = 0
KPT1 131500Z 22012G19KT 30/13 A30 RMK A01 T03030134  RH  037%=      5-min Rain = 0
KPT1 131505Z 21011G16KT 31/14 A30 RMK A01 T03110136  RH  036%=      5-min Rain = 0
KPT1 131510Z 21013KT 31/14 A30 RMK A01 T03120135  RH  035%=      5-min Rain = 0
KPT1 131515Z 21011KT 32/14 A30 RMK A01 T03150136  RH  035%=      5-min Rain = 0
KPT1 131520Z 21012G19KT 32/14 A30 RMK A01 T03200135  RH  034%=      5-min Rain = 0
KPT1 131525Z 21016G22KT 32/13 A30 RMK A01 T03230132  RH  033%=      5-min Rain = 0
KPT1 131530Z 21013G18KT 33/13 A30 RMK A01 T03260132  RH  032%=      5-min Rain = 0
KPT1 131535Z 21013G18KT 33/13 A2999 RMK A01 T03280133  RH  032%=      5-min Rain = 0
KPT1 131540Z 21012G20KT 33/13 A30 RMK A01 T03300133  RH  032%=      5-min Rain = 0
KPT1 131545Z 21010G17KT 33/14 A30 RMK A01 T03340137  RH  032%=      5-min Rain = 0
KPT1 131550Z 20011G16KT 34/14 A30 RMK A01 T03360139  RH  032%=      5-min Rain = 0
KPT1 131555Z 20013G18KT 34/14 A30 RMK A01 T03370137  RH  031%=      5-min Rain = 0
KPT1 131600Z 20012G19KT 34/14 A30 RMK A01 T03380135  RH  031%=      5-min Rain = 0
KPT1 131605Z 20014G19KT 34/13 A30 RMK A01 T03360134  RH  031%=      5-min Rain = 0
KPT1 131610Z 20013G18KT 34/13 A30 RMK A01 T03400134  RH  030%=      5-min Rain = 0
KPT1 131615Z 19014G20KT 34/13 A30 RMK A01 T03400133  RH  030%=      5-min Rain = 0
KPT1 131620Z 19014G20KT 34/13 A30 RMK A01 T03390131  RH  030%=      5-min Rain = 0
KPT1 131625Z 19014G19KT 33/13 A30 RMK A01 T03330130  RH  030%=      5-min Rain = 0
KPT1 131630Z 20013G21KT 34/13 A30 RMK A01 T03400129  RH  029%=      5-min Rain = 0
KPT1 131635Z 19015G21KT 34/13 A30 RMK A01 T03440127  RH  028%=      5-min Rain = 0
KPT1 131640Z 21013G20KT 35/12 A30 RMK A01 T03500124  RH  027%=      5-min Rain = 0
KPT1 131645Z 19013G20KT 35/12 A30 RMK A01 T03520122  RH  026%=      5-min Rain = 0
KPT1 131650Z 19014G19KT 35/12 A30 RMK A01 T03500118  RH  025%=      5-min Rain = 0
KPT1 131655Z 20015G21KT 35/11 A30 RMK A01 T03510112  RH  024%=      5-min Rain = 0
KPT1 131700Z 21015KT 35/11 A30 RMK A01 T03530106  RH  023%=      5-min Rain = 0
KPT1 131705Z 21014KT 36/11 A30 RMK A01 T03570106  RH  023%=      5-min Rain = 0
KPT1 131710Z 20010G18KT 37/10 A30 RMK A01 T03670103  RH  021%=      5-min Rain = 0
KPT1 131715Z 20012G18KT 37/10 A30 RMK A01 T03660099  RH  020%=      5-min Rain = 0
KPT1 131720Z 20013G19KT 37/09 A2999 RMK A01 T03650092  RH  020%=      5-min Rain = 0
KPT1 131725Z 20012G17KT 37/09 A2999 RMK A01 T03670085  RH  018%=      5-min Rain = 0
KPT1 131730Z 20013G18KT 37/09 A2999 RMK A01 T03690090  RH  019%=      5-min Rain = 0
KPT1 131735Z 20012KT 37/09 A2999 RMK A01 T03690094  RH  019%=      5-min Rain = 0
KPT1 131740Z 21011KT 37/08 A2999 RMK A01 T03740077  RH  017%=      5-min Rain = 0
KPT1 131745Z 22011KT 38/08 A2999 RMK A01 T03750080  RH  017%=      5-min Rain = 0
KPT1 131750Z 22010G15KT 38/08 A2999 RMK A01 T03810080  RH  017%=      5-min Rain = 0
KPT1 131755Z 21011KT 38/08 A2998 RMK A01 T03830077  RH  016%=      5-min Rain = 0
KPT1 131800Z 20008G14KT 38/09 A2998 RMK A01 T03820088  RH  017%=      5-min Rain = 0
KPT1 131805Z 19009KT 39/09 A2998 RMK A01 T03880087  RH  017%=      5-min Rain = 0
KPT1 131810Z 20009G16KT 38/08 A2998 RMK A01 T03830083  RH  017%=      5-min Rain = 0
KPT1 131815Z 19009G14KT 38/09 A2998 RMK A01 T03840087  RH  017%=      5-min Rain = 0
KPT1 131820Z 18011G17KT 39/08 A2998 RMK A01 T03860084  RH  017%=      5-min Rain = 0
KPT1 131825Z 18010G16KT 39/08 A2997 RMK A01 T03870083  RH  016%=      5-min Rain = 0
KPT1 131830Z 17011G16KT 39/08 A2997 RMK A01 T03850081  RH  016%=      5-min Rain = 0
KPT1 131835Z 20010G15KT 39/08 A2997 RMK A01 T03880076  RH  015%=      5-min Rain = 0
KPT1 131840Z 21011KT 39/08 A2997 RMK A01 T03860076  RH  016%=      5-min Rain = 0
KPT1 131845Z 21007G12KT 39/08 A2997 RMK A01 T03880076  RH  015%=      5-min Rain = 0
KPT1 131850Z 20011G18KT 39/07 A2997 RMK A01 T03900074  RH  015%=      5-min Rain = 0
KPT1 131855Z 20009G15KT 39/07 A2996 RMK A01 T03870073  RH  015%=      5-min Rain = 0
KPT1 131900Z 18008G13KT 40/07 A2996 RMK A01 T03960073  RH  015%=      5-min Rain = 0
KPT1 131905Z 22008G13KT 40/07 A2996 RMK A01 T03950073  RH  015%=      5-min Rain = 0
KPT1 131910Z 16009G15KT 40/07 A2996 RMK A01 T03960070  RH  014%=      5-min Rain = 0
KPT1 131915Z 17010G15KT 40/07 A2995 RMK A01 T03950068  RH  014%=      5-min Rain = 0
KPT1 131920Z 21009G14KT 40/07 A2995 RMK A01 T04020072  RH  014%=      5-min Rain = 0
KPT1 131925Z 19008G14KT 40/07 A2995 RMK A01 T04000072  RH  014%=      5-min Rain = 0
KPT1 131930Z 18009G14KT 40/07 A2995 RMK A01 T04000072  RH  014%=      5-min Rain = 0
KPT1 131935Z 19010G15KT 40/07 A2994 RMK A01 T04000069  RH  014%=      5-min Rain = 0
KPT1 131940Z 19009G15KT 40/07 A2994 RMK A01 T04020069  RH  014%=      5-min Rain = 0
KPT1 131945Z 17009KT 41/07 A2994 RMK A01 T04050067  RH  013%=      5-min Rain = 0
KPT1 131950Z 18008KT 41/07 A2994 RMK A01 T04060067  RH  013%=      5-min Rain = 0
KPT1 131955Z 19008G13KT 41/06 A2994 RMK A01 T04070061  RH  013%=      5-min Rain = 0
KPT1 132000Z 19010G15KT 41/06 A2994 RMK A01 T04050056  RH  012%=      5-min Rain = 0
KPT1 132005Z 18011G17KT 41/06 A2993 RMK A01 T04080056  RH  012%=      5-min Rain = 0
KPT1 132010Z 20009G17KT 40/06 A2993 RMK A01 T04040058  RH  013%=      5-min Rain = 0
KPT1 132015Z 19008G14KT 41/06 A2993 RMK A01 T04080056  RH  012%=      5-min Rain = 0
KPT1 132020Z 20008G13KT 41/06 A2993 RMK A01 T04090057  RH  012%=      5-min Rain = 0
KPT1 132025Z 19009KT 41/05 A2992 RMK A01 T04110053  RH  012%=      5-min Rain = 0
KPT1 132030Z 20008G13KT 41/05 A2992 RMK A01 T04100052  RH  012%=      5-min Rain = 0
KPT1 132035Z 20010G16KT 41/05 A2992 RMK A01 T04120049  RH  011%=      5-min Rain = 0
KPT1 132040Z 21008G14KT 41/05 A2992 RMK A01 T04110048  RH  011%=      5-min Rain = 0
KPT1 132045Z 21005KT 41/05 A2991 RMK A01 T04140047  RH  011%=      5-min Rain = 0
KPT1 132050Z 18008G14KT 42/04 A2991 RMK A01 T04180044  RH  011%=      5-min Rain = 0
KPT1 132055Z 20008G16KT 42/05 A2991 RMK A01 T04170045  RH  011%=      5-min Rain = 0
KPT1 132100Z 20010KT 41/04 A2991 RMK A01 T04130043  RH  011%=      5-min Rain = 0
KPT1 132105Z 21006G12KT 41/04 A2991 RMK A01 T04120042  RH  011%=      5-min Rain = 0
KPT1 132110Z 20008KT 41/04 A299 RMK A01 T04140040  RH  010%=      5-min Rain = 0
KPT1 132115Z 21008G15KT 42/04 A299 RMK A01 T04150041  RH  010%=      5-min Rain = 0
KPT1 132120Z 20012KT 42/04 A299 RMK A01 T04170039  RH  010%=      5-min Rain = 0
KPT1 132125Z 19009G15KT 41/04 A299 RMK A01 T04130037  RH  010%=      5-min Rain = 0
KPT1 132130Z 19006KT 42/04 A299 RMK A01 T04180040  RH  010%=      5-min Rain = 0
KPT1 132135Z 20006G11KT 42/04 A2989 RMK A01 T04220039  RH  010%=      5-min Rain = 0
KPT1 132140Z 19011KT 42/04 A2989 RMK A01 T04180036  RH  010%=      5-min Rain = 0
KPT1 132145Z 22008G13KT 42/04 A2989 RMK A01 T04180041  RH  010%=      5-min Rain = 0
KPT1 132150Z 24010G15KT 42/04 A2989 RMK A01 T04170040  RH  010%=      5-min Rain = 0
KPT1 132155Z 24008G20KT 41/04 A2989 RMK A01 T04130040  RH  010%=      5-min Rain = 0
KPT1 132200Z 22007G13KT 41/04 A2989 RMK A01 T04140037  RH  010%=      5-min Rain = 0
KPT1 132205Z 06001KT 41/03 A2989 RMK A01 T04120032  RH  010%=      5-min Rain = 0
KPT1 132210Z 16005G13KT 42/04 A2989 RMK A01 T04150035  RH  010%=      5-min Rain = 0
KPT1 132215Z 17007KT 42/04 A2989 RMK A01 T04190037  RH  010%=      5-min Rain = 0
KPT1 132220Z 21008G14KT 42/04 A2989 RMK A01 T04200039  RH  010%=      5-min Rain = 0
KPT1 132225Z 23007G12KT 41/04 A2989 RMK A01 T04140037  RH  010%=      5-min Rain = 0
KPT1 132230Z 20009KT 42/04 A2989 RMK A01 T04150035  RH  010%=      5-min Rain = 0
KPT1 132235Z 19007KT 41/04 A2989 RMK A01 T04140035  RH  010%=      5-min Rain = 0
KPT1 132240Z 22005KT 42/04 A2988 RMK A01 T04160035  RH  010%=      5-min Rain = 0
KPT1 132245Z 21009G14KT 42/04 A2988 RMK A01 T04160037  RH  010%=      5-min Rain = 0
KPT1 132250Z 19013G18KT 41/03 A2988 RMK A01 T04110034  RH  010%=      5-min Rain = 0
KPT1 132255Z 18010KT 41/04 A2988 RMK A01 T04130035  RH  010%=      5-min Rain = 0
KPT1 132300Z 19006KT 41/04 A2988 RMK A01 T04130036  RH  010%=      5-min Rain = 0
KPT1 132305Z 19007G13KT 41/04 A2988 RMK A01 T04140036  RH  010%=      5-min Rain = 0
KPT1 132310Z 18009KT 41/04 A2988 RMK A01 T04120035  RH  010%=      5-min Rain = 0
KPT1 132315Z 18008G13KT 41/04 A2988 RMK A01 T04130037  RH  010%=      5-min Rain = 0
KPT1 132320Z 22008KT 42/04 A2988 RMK A01 T04150036  RH  010%=      5-min Rain = 0
KPT1 132325Z 22009KT 41/03 A2988 RMK A01 T04110033  RH  010%=      5-min Rain = 0
KPT1 132330Z 20009KT 41/04 A2988 RMK A01 T04090037  RH  010%=      5-min Rain = 0
KPT1 132335Z 17009KT 41/04 A2988 RMK A01 T04090036  RH  010%=      5-min Rain = 0
KPT1 132340Z 18008KT 41/03 A2988 RMK A01 T04100034  RH  010%=      5-min Rain = 0
KPT1 132345Z 21004KT 41/04 A2988 RMK A01 T04100036  RH  010%=      5-min Rain = 0
KPT1 132350Z 19005G10KT 41/04 A2987 RMK A01 T04130038  RH  010%=      5-min Rain = 0
KPT1 132355Z 21008KT 41/04 A2987 RMK A01 T04070035  RH  010%=      5-min Rain = 0
KPT1 140000Z 19007G12KT 40/04 A2988 RMK A01 T04040035  RH  011%=      5-min Rain = 0
KPT1 140005Z 18009KT 40/04 A2987 RMK A01 T03980036  RH  011%=      5-min Rain = 0
KPT1 140010Z 17008KT 40/04 A2987 RMK A01 T03980035  RH  011%=      5-min Rain = 0
KPT1 140015Z 17011G18KT 40/03 A2987 RMK A01 T04000034  RH  011%=      5-min Rain = 0
KPT1 140020Z 19009G14KT 40/04 A2987 RMK A01 T04000035  RH  011%=      5-min Rain = 0
KPT1 140025Z 17009G14KT 40/04 A2988 RMK A01 T03990036  RH  011%=      5-min Rain = 0
KPT1 140030Z 18008KT 40/04 A2988 RMK A01 T03980037  RH  011%=      5-min Rain = 0
KPT1 140035Z 18008KT 40/04 A2988 RMK A01 T03960038  RH  011%=      5-min Rain = 0
KPT1 140040Z 18007KT 39/04 A2988 RMK A01 T03940037  RH  011%=      5-min Rain = 0
KPT1 140045Z 18009KT 39/04 A2988 RMK A01 T03920037  RH  011%=      5-min Rain = 0
KPT1 140050Z 18008KT 39/04 A2988 RMK A01 T03900036  RH  012%=      5-min Rain = 0
KPT1 140055Z 18009KT 39/04 A2988 RMK A01 T03880037  RH  012%=      5-min Rain = 0
KPT1 140100Z 19009KT 39/04 A2988 RMK A01 T03870038  RH  012%=      5-min Rain = 0
KPT1 140105Z 18009KT 39/04 A2988 RMK A01 T03850040  RH  012%=      5-min Rain = 0
KPT1 140110Z 18008KT 38/04 A2989 RMK A01 T03820042  RH  013%=      5-min Rain = 0
KPT1 140115Z 18007KT 38/04 A2989 RMK A01 T03790044  RH  013%=      5-min Rain = 0
KPT1 140120Z 18008KT 38/04 A2989 RMK A01 T03770044  RH  013%=      5-min Rain = 0
KPT1 140125Z 18007KT 37/05 A2989 RMK A01 T03730046  RH  014%=      5-min Rain = 0
KPT1 140130Z 19008KT 37/05 A2989 RMK A01 T03710047  RH  014%=      5-min Rain = 0
KPT1 140135Z 19007KT 37/05 A2989 RMK A01 T03700048  RH  014%=      5-min Rain = 0
KPT1 140140Z 19007KT 37/05 A2989 RMK A01 T03690049  RH  014%=      5-min Rain = 0
KPT1 140145Z 19007KT 37/05 A2989 RMK A01 T03650051  RH  015%=      5-min Rain = 0
KPT1 140150Z 19007KT 36/05 A2989 RMK A01 T03640051  RH  015%=      5-min Rain = 0
KPT1 140155Z 19007KT 36/05 A2989 RMK A01 T03630052  RH  015%=      5-min Rain = 0
KPT1 140200Z 18007KT 36/05 A299 RMK A01 T03620052  RH  015%=      5-min Rain = 0
KPT1 140205Z 19007KT 36/05 A299 RMK A01 T03600053  RH  015%=      5-min Rain = 0
KPT1 140210Z 19007KT 36/05 A299 RMK A01 T03590053  RH  015%=      5-min Rain = 0
KPT1 140215Z 19007KT 36/05 A299 RMK A01 T03570053  RH  016%=      5-min Rain = 0
KPT1 140220Z 19007KT 36/05 A299 RMK A01 T03570053  RH  016%=      5-min Rain = 0
KPT1 140225Z 19006KT 35/06 A299 RMK A01 T03540055  RH  016%=      5-min Rain = 0
KPT1 140230Z 20007KT 35/06 A299 RMK A01 T03530055  RH  016%=      5-min Rain = 0
KPT1 140235Z 20007KT 35/06 A2991 RMK A01 T03540055  RH  016%=      5-min Rain = 0
KPT1 140240Z 20007KT 35/06 A2991 RMK A01 T03520055  RH  016%=      5-min Rain = 0
KPT1 140245Z 20006KT 35/06 A2991 RMK A01 T03490055  RH  016%=      5-min Rain = 0
KPT1 140250Z 21007KT 35/06 A2991 RMK A01 T03480055  RH  017%=      5-min Rain = 0
KPT1 140255Z 21006KT 35/06 A2991 RMK A01 T03450056  RH  017%=      5-min Rain = 0
KPT1 140300Z 21007KT 34/06 A2992 RMK A01 T03420057  RH  017%=      5-min Rain = 0
KPT1 140305Z 21006KT 34/06 A2992 RMK A01 T03400057  RH  018%=      5-min Rain = 0
KPT1 140310Z 21007KT 34/06 A2992 RMK A01 T03380058  RH  018%=      5-min Rain = 0
KPT1 140315Z 21007KT 34/06 A2992 RMK A01 T03370058  RH  018%=      5-min Rain = 0
KPT1 140320Z 21006KT 34/06 A2992 RMK A01 T03350059  RH  018%=      5-min Rain = 0
KPT1 140325Z 21007KT 33/06 A2992 RMK A01 T03330060  RH  019%=      5-min Rain = 0
KPT1 140330Z 21007KT 33/06 A2992 RMK A01 T03330060  RH  019%=      5-min Rain = 0
KPT1 140335Z 21006KT 33/06 A2992 RMK A01 T03330060  RH  019%=      5-min Rain = 0
KPT1 140340Z 21006KT 33/06 A2992 RMK A01 T03320061  RH  019%=      5-min Rain = 0
KPT1 140345Z 21007KT 33/06 A2992 RMK A01 T03320061  RH  019%=      5-min Rain = 0
KPT1 140350Z 20007KT 33/06 A2992 RMK A01 T03330061  RH  019%=      5-min Rain = 0
KPT1 140355Z 20007KT 33/06 A2993 RMK A01 T03330062  RH  019%=      5-min Rain = 0
KPT1 140400Z 20007G12KT 33/06 A2993 RMK A01 T03330063  RH  019%=      5-min Rain = 0
KPT1 140405Z 20007KT 33/06 A2993 RMK A01 T03300064  RH  020%=      5-min Rain = 0
KPT1 140410Z 20007KT 33/07 A2993 RMK A01 T03280065  RH  020%=      5-min Rain = 0
KPT1 140415Z 20007G12KT 33/07 A2993 RMK A01 T03280066  RH  020%=      5-min Rain = 0
KPT1 140420Z 20008G13KT 33/07 A2993 RMK A01 T03290066  RH  020%=      5-min Rain = 0
KPT1 140425Z 20008G13KT 33/07 A2993 RMK A01 T03280067  RH  020%=      5-min Rain = 0
KPT1 140430Z 20007KT 33/07 A2993 RMK A01 T03270068  RH  020%=      5-min Rain = 0
KPT1 140435Z 20007KT 33/07 A2993 RMK A01 T03260069  RH  021%=      5-min Rain = 0
KPT1 140440Z 20007KT 33/07 A2993 RMK A01 T03260069  RH  021%=      5-min Rain = 0
KPT1 140445Z 20006KT 33/07 A2993 RMK A01 T03250070  RH  021%=      5-min Rain = 0
KPT1 140450Z 20007KT 32/07 A2993 RMK A01 T03240070  RH  021%=      5-min Rain = 0
KPT1 140455Z 21007KT 32/07 A2994 RMK A01 T03240071  RH  021%=      5-min Rain = 0

Page generated in 0.0171 seconds.